KCDC/CDC METAR and TAF weather

Enter ICAO airport designator
Station Type Date Time Source
KCDC METAR 2021/09/16 20:53 UTC NOAA

KCDC 162053Z AUTO 21016G21KT 10SM CLR 28/M08 A3002 RMK AO2 SLP082 T02781083 56006


Station Type Date Time Source
KCDC Decoded METAR 2021/09/16 20:53 UTC NOAA

CEDAR CITY MUN AIRPORT, UT, United States (KCDC) 37-42N 113-06W 1714M
Sep 16, 2021 - 04:53 PM EDT / 2021.09.16 2053 UTC
Wind: from the SSW (210 degrees) at 18 MPH (16 KT) gusting to 24 MPH (21 KT):0
Visibility: 10 mile(s):0
Sky conditions: clear
Temperature: 82.0 F (27.8 C)
Dew Point: 17.1 F (-8.3 C)
Relative Humidity: 8%
Pressure (altimeter): 30.02 in. Hg (1016 hPa)
Pressure tendency: 0.02 inches (0.6 hPa) lower than three hours ago
ob: KCDC 162053Z AUTO 21016G21KT 10SM CLR 28/M08 A3002 RMK AO2 SLP082 T02781083 56006
cycle: 21

Station Type Date Time Source
KCDC TAF 2021/09/16 20:22 UTC NOAA

TAF
AMD KCDC 162020Z 1620/1718 22012KT P6SM SKC
FM170300 17006KT P6SM SKC
FM171500 22010G18KT P6SM SCT250

Example: see airport list